createdAt,value
2018-07-30T00:01:47.580Z,100920.77
2018-07-30T00:04:53.762Z,100924.35
2018-07-30T00:08:00.442Z,100918.11
2018-07-30T00:11:05.280Z,100914.82
2018-07-30T00:14:11.087Z,100911.64
2018-07-30T00:17:17.880Z,100909.32
2018-07-30T00:20:23.542Z,100905.20
2018-07-30T00:23:28.361Z,100897.66
2018-07-30T00:26:34.044Z,100895.27
2018-07-30T00:29:39.576Z,100894.07
2018-07-30T00:32:45.289Z,100891.75
2018-07-30T00:35:50.701Z,100894.77
2018-07-30T00:38:55.532Z,100894.73
2018-07-30T00:42:00.747Z,100897.63
2018-07-30T00:45:05.580Z,100899.49
2018-07-30T00:48:11.337Z,100893.88
2018-07-30T00:51:16.961Z,100895.73
2018-07-30T00:54:23.006Z,100883.92
2018-07-30T00:57:27.867Z,100889.41
2018-07-30T01:00:34.690Z,100885.72
2018-07-30T01:03:41.791Z,100884.96
2018-07-30T01:06:47.765Z,100888.48
2018-07-30T01:09:53.157Z,100885.80
2018-07-30T01:12:58.021Z,100892.27
2018-07-30T01:16:02.822Z,100889.97
2018-07-30T01:19:08.310Z,100890.87
2018-07-30T01:22:13.162Z,100893.73
2018-07-30T01:25:18.959Z,100891.35
2018-07-30T01:28:24.010Z,100887.58
2018-07-30T01:31:29.262Z,100889.27
2018-07-30T01:34:34.132Z,100884.76
2018-07-30T01:37:40.942Z,100886.59
2018-07-30T01:40:45.777Z,100890.92
2018-07-30T01:43:51.591Z,100892.71
2018-07-30T01:46:57.042Z,100886.58
2018-07-30T01:50:02.236Z,100888.30
2018-07-30T01:53:08.342Z,100898.88
2018-07-30T01:56:14.146Z,100896.99
2018-07-30T01:59:19.074Z,100898.78
2018-07-30T02:02:24.886Z,100894.66
2018-07-30T02:05:30.179Z,100892.88
2018-07-30T02:08:35.081Z,100899.88
2018-07-30T02:11:40.165Z,100895.48
2018-07-30T02:14:45.951Z,100901.32
2018-07-30T02:17:52.705Z,100900.64
2018-07-30T02:20:57.529Z,100900.88
2018-07-30T02:24:03.151Z,100895.32
2018-07-30T02:27:09.165Z,100898.89
2018-07-30T02:30:15.131Z,100895.94
2018-07-30T02:33:19.967Z,100892.78
2018-07-30T02:36:24.798Z,100898.82
2018-07-30T02:39:29.619Z,100892.78
2018-07-30T02:42:34.671Z,100892.58
2018-07-30T02:45:39.486Z,100890.45
2018-07-30T02:48:44.740Z,100901.47
2018-07-30T02:51:49.976Z,100901.13
2018-07-30T02:54:55.657Z,100905.04
2018-07-30T02:58:00.545Z,100900.30
2018-07-30T03:01:05.362Z,100906.95
2018-07-30T03:04:12.501Z,100911.83
2018-07-30T03:07:17.329Z,100911.97
2018-07-30T03:10:22.401Z,100911.63
2018-07-30T03:13:27.967Z,100913.52
2018-07-30T03:16:36.082Z,100913.41
2018-07-30T03:19:41.572Z,100909.02
2018-07-30T03:22:46.699Z,100906.75
2018-07-30T03:25:52.292Z,100907.23
2018-07-30T03:28:58.325Z,100910.42
2018-07-30T03:32:04.434Z,100910.56
2018-07-30T03:35:10.166Z,100910.67
2018-07-30T03:38:14.962Z,100911.63
2018-07-30T03:41:19.793Z,100919.21
2018-07-30T03:44:25.035Z,100917.77
2018-07-30T03:47:31.113Z,100912.45
2018-07-30T03:50:36.007Z,100902.97
2018-07-30T03:53:40.843Z,100902.13
2018-07-30T03:56:46.598Z,100904.28
2018-07-30T03:59:52.319Z,100898.34
2018-07-30T04:02:58.291Z,100902.26
2018-07-30T04:06:03.392Z,100902.98
2018-07-30T04:09:09.026Z,100903.11
2018-07-30T04:12:14.434Z,100897.89
2018-07-30T04:15:19.613Z,100899.34
2018-07-30T04:18:25.349Z,100904.69
2018-07-30T04:21:30.184Z,100908.95
2018-07-30T04:24:35.948Z,100910.94
2018-07-30T04:27:41.198Z,100912.59
2018-07-30T04:30:47.387Z,100915.88
2018-07-30T04:33:54.386Z,100923.95
2018-07-30T04:37:00.202Z,100925.97
2018-07-30T04:40:05.074Z,100923.23
2018-07-30T04:43:11.672Z,100922.27
2018-07-30T04:46:17.326Z,100921.66
2018-07-30T04:49:22.337Z,100919.73
2018-07-30T04:52:28.004Z,100916.53
2018-07-30T04:55:33.749Z,100914.27
2018-07-30T04:58:38.927Z,100922.78
2018-07-30T05:01:43.762Z,100925.12
2018-07-30T05:04:48.604Z,100933.63
2018-07-30T05:07:53.527Z,100939.54
2018-07-30T05:10:58.373Z,100946.65
2018-07-30T05:14:03.521Z,100933.46
2018-07-30T05:17:08.398Z,100932.70
2018-07-30T05:20:13.229Z,100941.12
2018-07-30T05:23:19.048Z,100938.71
2018-07-30T05:26:24.915Z,100941.25
2018-07-30T05:29:29.689Z,100944.92
2018-07-30T05:32:36.393Z,100940.73
2018-07-30T05:35:42.082Z,100949.94
2018-07-30T05:38:48.135Z,100948.10
2018-07-30T05:41:54.514Z,100953.73
2018-07-30T05:45:00.275Z,100964.95
2018-07-30T05:48:06.526Z,100960.48
2018-07-30T05:51:12.183Z,100959.13
2018-07-30T05:54:17.062Z,100963.34
2018-07-30T05:57:23.814Z,100961.50
2018-07-30T06:00:30.063Z,100959.66
2018-07-30T06:03:36.062Z,100960.26
2018-07-30T06:06:41.509Z,100966.11
2018-07-30T06:09:48.786Z,100968.52
2018-07-30T06:12:54.595Z,100976.63
2018-07-30T06:16:00.337Z,100969.06
2018-07-30T06:19:06.135Z,100982.38
2018-07-30T06:22:12.056Z,100977.43
2018-07-30T06:25:18.393Z,100981.63
2018-07-30T06:28:23.214Z,100979.89
2018-07-30T06:31:29.079Z,100986.25
2018-07-30T06:34:33.944Z,101001.84
2018-07-30T06:37:39.401Z,101008.32
2018-07-30T06:40:46.810Z,101010.98
2018-07-30T06:43:52.251Z,101014.36
2018-07-30T06:46:58.027Z,101016.87
2018-07-30T06:50:03.716Z,101016.43
2018-07-30T06:53:09.635Z,101021.74
2018-07-30T06:56:14.649Z,101018.34
2018-07-30T06:59:22.187Z,101026.13
2018-07-30T07:02:28.045Z,101029.76
2018-07-30T07:05:32.865Z,101030.28
2018-07-30T07:08:37.696Z,101033.47
2018-07-30T07:11:43.059Z,101037.43
2018-07-30T07:14:47.972Z,101050.91
2018-07-30T07:17:52.788Z,101044.58
2018-07-30T07:20:58.464Z,101042.82
2018-07-30T07:24:03.989Z,101041.06
2018-07-30T07:27:11.318Z,101039.86
2018-07-30T07:30:16.854Z,101040.05
2018-07-30T07:33:21.898Z,101046.63
2018-07-30T07:36:27.727Z,101052.42
2018-07-30T07:39:33.966Z,101054.26
2018-07-30T07:42:39.824Z,101053.95
2018-07-30T07:45:45.594Z,101056.65
2018-07-30T07:48:51.183Z,101062.74
2018-07-30T07:51:58.289Z,101062.51
2018-07-30T07:55:04.112Z,101067.00
2018-07-30T07:58:08.913Z,101072.82
2018-07-30T08:01:14.177Z,101074.71
2018-07-30T08:04:20.017Z,101073.50
2018-07-30T08:07:25.246Z,101079.31
2018-07-30T08:10:31.098Z,101068.58
2018-07-30T08:13:36.361Z,101081.63
2018-07-30T08:16:42.186Z,101082.66
2018-07-30T08:19:48.907Z,101085.36
2018-07-30T08:22:54.447Z,101086.75
2018-07-30T08:25:59.533Z,101085.84
2018-07-30T08:29:04.598Z,101082.31
2018-07-30T08:32:10.785Z,101079.08
2018-07-30T08:35:16.439Z,101087.71
2018-07-30T08:38:21.282Z,101083.83
2018-07-30T08:41:27.374Z,101094.73
2018-07-30T08:44:34.130Z,101092.48
2018-07-30T08:47:39.590Z,101095.63
2018-07-30T08:50:44.440Z,101095.34
2018-07-30T08:53:49.785Z,101098.34
2018-07-30T08:56:54.820Z,101100.33
2018-07-30T08:59:59.963Z,101106.77
2018-07-30T09:03:05.103Z,101105.47
2018-07-30T09:06:10.741Z,101113.92
2018-07-30T09:09:16.585Z,101106.20
2018-07-30T09:12:21.470Z,101107.52
2018-07-30T09:15:26.813Z,101108.05
2018-07-30T09:18:32.607Z,101114.95
2018-07-30T09:21:39.032Z,101121.04
2018-07-30T09:24:44.767Z,101123.05
2018-07-30T09:27:49.596Z,101114.83
2018-07-30T09:30:54.480Z,101121.41
2018-07-30T09:34:00.565Z,101116.17
2018-07-30T09:37:06.396Z,101121.92
2018-07-30T09:40:11.211Z,101123.44
2018-07-30T09:43:16.921Z,101122.45
2018-07-30T09:46:23.862Z,101120.98
2018-07-30T09:49:29.518Z,101124.48
2018-07-30T09:52:35.458Z,101126.80
2018-07-30T09:55:42.531Z,101136.03
2018-07-30T09:58:47.344Z,101130.94
2018-07-30T10:01:53.708Z,101125.83
2018-07-30T10:04:59.515Z,101127.80
2018-07-30T10:08:04.791Z,101130.77
2018-07-30T10:11:09.640Z,101137.70
2018-07-30T10:14:14.446Z,101138.70
2018-07-30T10:17:19.669Z,101145.41
2018-07-30T10:20:25.493Z,101143.59
2018-07-30T10:23:31.352Z,101145.54
2018-07-30T10:26:36.214Z,101143.56
2018-07-30T10:29:41.438Z,101146.36
2018-07-30T10:32:47.309Z,101143.68
2018-07-30T10:35:52.175Z,101144.48
2018-07-30T10:38:57.543Z,101146.80
2018-07-30T10:42:02.938Z,101138.52
2018-07-30T10:45:08.061Z,101144.44
2018-07-30T10:48:13.290Z,101147.72
2018-07-30T10:51:19.005Z,101142.42
2018-07-30T10:54:24.678Z,101142.88
2018-07-30T10:57:30.750Z,101141.03
2018-07-30T11:00:36.678Z,101141.82
2018-07-30T11:03:42.523Z,101136.69
2018-07-30T11:06:47.379Z,101134.02
2018-07-30T11:09:52.849Z,101133.51
2018-07-30T11:13:00.065Z,101133.00
2018-07-30T11:16:05.648Z,101139.20
2018-07-30T11:19:10.856Z,101133.55
2018-07-30T11:22:15.743Z,101132.00
2018-07-30T11:25:21.825Z,101136.09
2018-07-30T11:28:28.114Z,101130.27
2018-07-30T11:31:33.550Z,101133.40
2018-07-30T11:34:39.053Z,101130.21
2018-07-30T11:37:44.815Z,101123.74
2018-07-30T11:40:49.633Z,101129.65
2018-07-30T11:43:56.346Z,101120.86
2018-07-30T11:47:01.868Z,101123.13
2018-07-30T11:50:06.771Z,101122.33
2018-07-30T11:53:12.996Z,101128.20
2018-07-30T11:56:19.110Z,101125.16
2018-07-30T11:59:24.852Z,101115.21
2018-07-30T12:02:30.851Z,101120.76
2018-07-30T12:05:36.067Z,101116.75
2018-07-30T12:08:40.994Z,101115.08
2018-07-30T12:11:46.043Z,101118.67
2018-07-30T12:14:51.441Z,101117.30
2018-07-30T12:17:58.134Z,101112.62
2018-07-30T12:21:03.990Z,101105.83
2018-07-30T12:24:09.397Z,101107.27
2018-07-30T12:27:15.434Z,101109.07
2018-07-30T12:30:20.551Z,101112.34
2018-07-30T12:33:25.515Z,101107.69
2018-07-30T12:36:30.973Z,101107.84
2018-07-30T12:39:36.958Z,101108.86
2018-07-30T12:42:42.709Z,101105.84
2018-07-30T12:45:49.141Z,101107.98
2018-07-30T12:48:54.825Z,101107.45
2018-07-30T12:52:01.163Z,101108.02
2018-07-30T12:55:06.751Z,101102.00
2018-07-30T12:58:11.674Z,101105.05
2018-07-30T13:01:16.558Z,101110.39
2018-07-30T13:04:22.208Z,101099.09
2018-07-30T13:07:28.266Z,101099.14
2018-07-30T13:10:34.364Z,101098.72
2018-07-30T13:13:39.505Z,101091.22
2018-07-30T13:16:44.589Z,101086.23
2018-07-30T13:19:50.340Z,101082.45
2018-07-30T13:22:55.823Z,101079.73
2018-07-30T13:26:01.049Z,101072.41
2018-07-30T13:29:06.558Z,101077.70
2018-07-30T13:32:12.716Z,101077.52
2018-07-30T13:35:17.555Z,101065.41
2018-07-30T13:38:23.313Z,101065.88
2018-07-30T13:41:29.248Z,101074.55
2018-07-30T13:44:34.764Z,101070.66
2018-07-30T13:47:39.774Z,101062.91
2018-07-30T13:50:46.451Z,101062.43
2018-07-30T13:53:53.590Z,101054.55
2018-07-30T13:56:59.448Z,101055.40
2018-07-30T14:00:05.260Z,101052.53
2018-07-30T14:03:11.403Z,101054.53
2018-07-30T14:06:16.604Z,101055.20
2018-07-30T14:09:21.942Z,101053.51
2018-07-30T14:12:27.597Z,101054.37
2018-07-30T14:15:32.863Z,101046.98
2018-07-30T14:18:38.723Z,101050.91
2018-07-30T14:21:43.558Z,101052.79
2018-07-30T14:24:48.919Z,101045.39
2018-07-30T14:27:53.739Z,101050.80
2018-07-30T14:30:58.618Z,101046.76
2018-07-30T14:34:03.793Z,101044.11
2018-07-30T14:37:08.648Z,101049.45
2018-07-30T14:40:14.304Z,101045.68
2018-07-30T14:43:19.138Z,101048.88
2018-07-30T14:46:24.271Z,101039.39
2018-07-30T14:49:30.309Z,101027.85
2018-07-30T14:52:37.510Z,101030.56
2018-07-30T14:55:43.592Z,101036.00
2018-07-30T14:58:49.229Z,101031.80
2018-07-30T15:01:56.565Z,101029.38
2018-07-30T15:05:02.344Z,101030.09
2018-07-30T15:08:09.302Z,101031.52
2018-07-30T15:11:15.125Z,101024.36
2018-07-30T15:14:21.218Z,101019.27
2018-07-30T15:17:26.358Z,101025.39
2018-07-30T15:20:31.731Z,101022.94
2018-07-30T15:23:38.805Z,101005.59
2018-07-30T15:26:45.183Z,101007.02
2018-07-30T15:29:51.024Z,101004.45
2018-07-30T15:32:58.078Z,101007.84
2018-07-30T15:36:04.907Z,101013.25
2018-07-30T15:39:11.524Z,101015.19
2018-07-30T15:42:16.661Z,101004.56
2018-07-30T15:45:21.793Z,101009.97
2018-07-30T15:48:27.049Z,101014.16
2018-07-30T15:51:33.481Z,101006.92
2018-07-30T15:54:39.224Z,101013.33
2018-07-30T15:57:45.216Z,101008.95
2018-07-30T16:00:51.413Z,101012.33
2018-07-30T16:03:58.577Z,101010.29
2018-07-30T16:07:05.644Z,101007.72
2018-07-30T16:10:12.749Z,101007.31
2018-07-30T16:13:18.472Z,101003.10
2018-07-30T16:16:24.389Z,101002.57
2018-07-30T16:19:31.584Z,101003.56
2018-07-30T16:22:38.195Z,101004.90
2018-07-30T16:25:44.443Z,100996.61
2018-07-30T16:28:51.442Z,101000.34
2018-07-30T16:31:57.462Z,100997.59
2018-07-30T16:35:02.760Z,100990.02
2018-07-30T16:38:10.137Z,100986.88
2018-07-30T16:41:15.789Z,100991.73
2018-07-30T16:44:22.074Z,100988.94
2018-07-30T16:47:27.870Z,100993.37
2018-07-30T16:50:33.562Z,100981.94
2018-07-30T16:53:39.605Z,100987.20
2018-07-30T16:56:46.631Z,100987.80
2018-07-30T16:59:52.581Z,100986.53
2018-07-30T17:02:59.669Z,100988.14
2018-07-30T17:06:05.545Z,100983.72
2018-07-30T17:09:13.552Z,100989.89
2018-07-30T17:12:22.510Z,100986.51
2018-07-30T17:15:28.229Z,100990.88
2018-07-30T17:18:34.358Z,100996.42
2018-07-30T17:21:40.625Z,100989.37
2018-07-30T17:24:48.065Z,100990.45
2018-07-30T17:27:53.224Z,100993.06
2018-07-30T17:30:59.983Z,100989.03
2018-07-30T17:34:05.700Z,100994.60
2018-07-30T17:37:12.128Z,100993.52
2018-07-30T17:40:18.242Z,100989.48
2018-07-30T17:43:24.749Z,100994.39
2018-07-30T17:46:29.886Z,100993.81
2018-07-30T17:49:36.014Z,100997.55
2018-07-30T17:52:42.300Z,100998.79
2018-07-30T17:55:48.762Z,100995.75
2018-07-30T17:58:54.839Z,100992.94
2018-07-30T18:01:59.990Z,100996.31
2018-07-30T18:05:05.638Z,101000.89
2018-07-30T18:08:11.897Z,100996.02
2018-07-30T18:11:18.661Z,101000.59
2018-07-30T18:14:24.677Z,101010.25
2018-07-30T18:17:31.137Z,101008.05
2018-07-30T18:20:36.789Z,101006.13
2018-07-30T18:23:45.702Z,101005.21
2018-07-30T18:26:52.378Z,101006.97
2018-07-30T18:29:58.131Z,101016.11
2018-07-30T18:33:04.344Z,101015.53
2018-07-30T18:36:10.185Z,101013.58
2018-07-30T18:39:16.797Z,101009.85
2018-07-30T18:42:23.497Z,101010.06
2018-07-30T18:45:29.137Z,101012.94
2018-07-30T18:48:35.178Z,101013.64
2018-07-30T18:51:41.077Z,101017.84
2018-07-30T18:54:47.713Z,101021.68
2018-07-30T18:57:53.010Z,101019.24
2018-07-30T19:00:59.186Z,101024.43
2018-07-30T19:04:06.434Z,101022.48
2018-07-30T19:07:11.991Z,101013.63
2018-07-30T19:10:17.569Z,101024.05
2018-07-30T19:13:23.927Z,101028.38
2018-07-30T19:16:29.310Z,101040.16
2018-07-30T19:19:35.503Z,101040.02
2018-07-30T19:22:41.551Z,101045.52
2018-07-30T19:25:48.601Z,101042.23
2018-07-30T19:28:56.403Z,101056.28
2018-07-30T19:32:02.497Z,101050.08
2018-07-30T19:35:08.419Z,101060.80
2018-07-30T19:38:15.278Z,101064.11
2018-07-30T19:41:22.638Z,101065.10
2018-07-30T19:44:28.546Z,101067.80
2018-07-30T19:47:34.549Z,101062.70
2018-07-30T19:50:40.562Z,101066.49
2018-07-30T19:53:46.550Z,101064.06
2018-07-30T19:56:52.733Z,101068.18
2018-07-30T19:59:58.636Z,101064.92
2018-07-30T20:03:04.533Z,101063.94
2018-07-30T20:06:10.189Z,101068.08
2018-07-30T20:09:16.830Z,101068.70
2018-07-30T20:12:22.600Z,101066.76
2018-07-30T20:15:27.927Z,101069.55
2018-07-30T20:18:33.921Z,101064.97
2018-07-30T20:21:39.881Z,101074.16
2018-07-30T20:24:46.212Z,101067.12
2018-07-30T20:27:51.798Z,101072.86
2018-07-30T20:30:57.873Z,101070.41
2018-07-30T20:34:06.298Z,101065.62
2018-07-30T20:37:11.295Z,101067.61
2018-07-30T20:40:16.882Z,101065.13
2018-07-30T20:43:22.879Z,101076.48
2018-07-30T20:46:29.415Z,101077.13
2018-07-30T20:49:34.625Z,101072.66
2018-07-30T20:52:39.842Z,101074.47
2018-07-30T20:55:46.035Z,101076.58
2018-07-30T20:58:52.216Z,101067.06
2018-07-30T21:01:58.954Z,101063.58
2018-07-30T21:05:04.963Z,101066.54
2018-07-30T21:08:12.383Z,101073.77
2018-07-30T21:11:18.834Z,101074.73
2018-07-30T21:14:23.957Z,101075.88
2018-07-30T21:17:29.337Z,101071.45
2018-07-30T21:20:36.469Z,101069.14
2018-07-30T21:23:43.198Z,101065.99
2018-07-30T21:26:49.612Z,101071.91
2018-07-30T21:29:55.006Z,101072.73
2018-07-30T21:33:01.671Z,101080.94
2018-07-30T21:36:07.146Z,101071.05
2018-07-30T21:39:14.353Z,101067.44
2018-07-30T21:42:19.700Z,101064.81
2018-07-30T21:45:35.175Z,101068.55
2018-07-30T21:48:41.348Z,101063.27
2018-07-30T21:51:47.468Z,101070.16
2018-07-30T21:54:53.586Z,101067.36
2018-07-30T21:57:59.021Z,101070.61
2018-07-30T22:01:04.329Z,101067.00
2018-07-30T22:04:10.069Z,101067.81
2018-07-30T22:07:15.481Z,101060.26
2018-07-30T22:10:23.506Z,101063.50
2018-07-30T22:13:29.379Z,101069.58
2018-07-30T22:16:36.731Z,101066.28
2018-07-30T22:19:43.685Z,101073.17
2018-07-30T22:22:49.431Z,101075.27
2018-07-30T22:25:56.469Z,101081.17
2018-07-30T22:29:02.405Z,101075.09
2018-07-30T22:32:08.705Z,101079.65
2018-07-30T22:35:14.894Z,101078.66
2018-07-30T22:38:21.533Z,101085.53
2018-07-30T22:41:28.462Z,101080.11
2018-07-30T22:44:34.429Z,101086.14
2018-07-30T22:47:41.037Z,101081.20
2018-07-30T22:50:47.375Z,101082.34
2018-07-30T22:53:52.990Z,101079.55
2018-07-30T22:56:59.086Z,101077.86
2018-07-30T23:00:05.744Z,101081.80
2018-07-30T23:03:10.857Z,101079.98
2018-07-30T23:06:17.138Z,101082.40
2018-07-30T23:09:24.123Z,101079.56
2018-07-30T23:12:31.162Z,101080.70
2018-07-30T23:15:37.449Z,101078.39
2018-07-30T23:18:42.667Z,101081.17
2018-07-30T23:21:47.800Z,101076.20
2018-07-30T23:24:52.900Z,101074.72
2018-07-30T23:27:59.389Z,101075.37
2018-07-30T23:31:05.864Z,101074.20
2018-07-30T23:34:11.393Z,101075.50
2018-07-30T23:37:17.499Z,101068.73
2018-07-30T23:40:24.030Z,101072.34
2018-07-30T23:43:31.216Z,101059.20
2018-07-30T23:46:36.703Z,101064.27
2018-07-30T23:49:42.337Z,101062.91
2018-07-30T23:52:48.158Z,101063.22
2018-07-30T23:55:53.903Z,101057.95
2018-07-30T23:58:59.947Z,101064.30
